createdAt,value
2023-05-05T00:01:59.780Z,9.26
2023-05-05T00:04:03.376Z,9.24
2023-05-05T00:06:08.184Z,9.22
2023-05-05T00:08:11.589Z,9.19
2023-05-05T00:10:14.925Z,9.15
2023-05-05T00:12:18.843Z,9.12
2023-05-05T00:14:24.014Z,9.08
2023-05-05T00:16:27.474Z,9.07
2023-05-05T00:18:30.886Z,9.04
2023-05-05T00:20:34.289Z,9.02
2023-05-05T00:22:37.628Z,9.00
2023-05-05T00:24:40.970Z,8.96
2023-05-05T00:26:44.377Z,8.95
2023-05-05T00:28:49.352Z,8.93
2023-05-05T00:30:54.096Z,8.91
2023-05-05T00:32:57.656Z,8.89
2023-05-05T00:35:01.218Z,8.87
2023-05-05T00:37:04.895Z,8.84
2023-05-05T00:39:08.277Z,8.82
2023-05-05T00:41:11.705Z,8.80
2023-05-05T00:43:15.048Z,8.77
2023-05-05T00:45:19.832Z,8.76
2023-05-05T00:47:24.746Z,8.72
2023-05-05T00:49:28.095Z,8.71
2023-05-05T00:51:32.119Z,8.70
2023-05-05T00:53:35.913Z,8.67
2023-05-05T00:55:39.398Z,8.64
2023-05-05T00:57:43.032Z,8.64
2023-05-05T00:59:47.688Z,8.62
2023-05-05T01:01:51.447Z,8.59
2023-05-05T01:03:57.224Z,8.57
2023-05-05T01:06:10.603Z,8.56
2023-05-05T01:08:28.220Z,8.54
2023-05-05T01:10:39.578Z,8.51
2023-05-05T01:12:52.699Z,8.49
2023-05-05T01:15:05.234Z,8.47
2023-05-05T01:17:15.459Z,8.46
2023-05-05T01:19:48.512Z,8.44
2023-05-05T01:22:00.652Z,8.42
2023-05-05T01:24:40.999Z,8.40
2023-05-05T01:27:00.311Z,8.38
2023-05-05T01:29:32.781Z,8.35
2023-05-05T01:31:57.174Z,8.34
2023-05-05T01:34:04.013Z,8.33
2023-05-05T01:36:22.708Z,8.31
2023-05-05T01:38:33.608Z,8.29
2023-05-05T01:40:43.671Z,8.27
2023-05-05T01:42:48.026Z,8.26
2023-05-05T01:44:53.627Z,8.23
2023-05-05T01:47:00.835Z,8.23
2023-05-05T01:49:06.173Z,8.23
2023-05-05T01:51:10.845Z,8.21
2023-05-05T01:53:14.906Z,8.21
2023-05-05T01:55:20.016Z,8.19
2023-05-05T01:57:26.574Z,8.18
2023-05-05T01:59:30.898Z,8.17
2023-05-05T02:01:38.676Z,8.16
2023-05-05T02:03:46.925Z,8.16
2023-05-05T02:05:53.253Z,8.14
2023-05-05T02:08:00.132Z,8.13
2023-05-05T02:10:06.255Z,8.14
2023-05-05T02:12:11.009Z,8.11
2023-05-05T02:14:16.592Z,8.10
2023-05-05T02:16:21.412Z,8.09
2023-05-05T02:18:27.196Z,8.07
2023-05-05T02:20:32.959Z,8.05
2023-05-05T02:22:36.298Z,8.01
2023-05-05T02:24:39.729Z,7.98
2023-05-05T02:26:47.230Z,7.97
2023-05-05T02:28:56.912Z,7.93
2023-05-05T02:31:02.094Z,7.91
2023-05-05T02:33:09.409Z,7.88
2023-05-05T02:35:16.432Z,7.86
2023-05-05T02:37:25.646Z,7.81
2023-05-05T02:39:36.783Z,7.79
2023-05-05T02:41:48.470Z,7.76
2023-05-05T02:44:02.762Z,7.74
2023-05-05T02:46:07.971Z,7.70
2023-05-05T02:48:13.096Z,7.68
2023-05-05T02:50:17.031Z,7.64
2023-05-05T02:52:30.819Z,7.60
2023-05-05T02:54:34.679Z,7.58
2023-05-05T02:56:45.502Z,7.56
2023-05-05T02:58:54.549Z,7.55
2023-05-05T03:01:08.781Z,7.54
2023-05-05T03:03:19.432Z,7.49
2023-05-05T03:05:29.514Z,7.49
2023-05-05T03:07:42.095Z,7.47
2023-05-05T03:09:52.699Z,7.46
2023-05-05T03:12:01.094Z,7.45
2023-05-05T03:14:10.014Z,7.42
2023-05-05T03:16:16.680Z,7.42
2023-05-05T03:18:23.771Z,7.39
2023-05-05T03:20:33.677Z,7.40
2023-05-05T03:22:44.025Z,7.38
2023-05-05T03:24:51.605Z,7.38
2023-05-05T03:26:58.880Z,7.35
2023-05-05T03:29:09.149Z,7.36
2023-05-05T03:31:15.960Z,7.34
2023-05-05T03:33:20.502Z,7.32
2023-05-05T03:35:24.110Z,7.30
2023-05-05T03:37:27.470Z,7.29
2023-05-05T03:39:32.376Z,7.28
2023-05-05T03:41:36.371Z,7.28
2023-05-05T03:43:41.400Z,7.26
2023-05-05T03:45:45.324Z,7.25
2023-05-05T03:47:49.057Z,7.25
2023-05-05T03:49:52.533Z,7.27
2023-05-05T03:51:55.878Z,7.27
2023-05-05T03:53:59.301Z,7.28
2023-05-05T03:56:04.068Z,7.31
2023-05-05T03:58:07.869Z,7.33
2023-05-05T04:00:12.311Z,7.35
2023-05-05T04:02:21.061Z,7.37
2023-05-05T04:04:25.036Z,7.39
2023-05-05T04:06:28.894Z,7.40
2023-05-05T04:08:32.455Z,7.43
2023-05-05T04:10:35.866Z,7.43
2023-05-05T04:12:41.538Z,7.44
2023-05-05T04:14:45.004Z,7.45
2023-05-05T04:16:48.429Z,7.45
2023-05-05T04:18:51.815Z,7.46
2023-05-05T04:20:55.129Z,7.48
2023-05-05T04:22:59.301Z,7.51
2023-05-05T04:25:02.869Z,7.51
2023-05-05T04:27:06.270Z,7.54
2023-05-05T04:29:11.018Z,7.53
2023-05-05T04:31:14.385Z,7.54
2023-05-05T04:33:19.656Z,7.55
2023-05-05T04:35:24.803Z,7.58
2023-05-05T04:37:28.964Z,7.59
2023-05-05T04:39:33.972Z,7.58
2023-05-05T04:41:37.450Z,7.59
2023-05-05T04:43:41.012Z,7.61
2023-05-05T04:45:54.730Z,7.63
2023-05-05T04:48:01.066Z,7.66
2023-05-05T04:50:04.507Z,7.67
2023-05-05T04:52:08.305Z,7.69
2023-05-05T04:54:12.870Z,7.73
2023-05-05T04:56:16.262Z,7.74
2023-05-05T04:58:20.183Z,7.76
2023-05-05T05:00:24.096Z,7.79
2023-05-05T05:02:28.900Z,7.83
2023-05-05T05:04:32.292Z,7.86
2023-05-05T05:06:35.934Z,7.91
2023-05-05T05:08:39.423Z,7.94
2023-05-05T05:10:43.626Z,7.98
2023-05-05T05:12:48.815Z,8.03
2023-05-05T05:14:52.217Z,8.07
2023-05-05T05:16:55.638Z,8.12
2023-05-05T05:19:02.086Z,8.18
2023-05-05T05:21:06.808Z,8.22
2023-05-05T05:23:10.532Z,8.27
2023-05-05T05:25:18.471Z,8.31
2023-05-05T05:27:23.814Z,8.33
2023-05-05T05:29:29.551Z,8.34
2023-05-05T05:31:35.134Z,8.35
2023-05-05T05:33:38.769Z,8.35
2023-05-05T05:35:44.162Z,8.35
2023-05-05T05:37:48.013Z,8.37
2023-05-05T05:39:54.104Z,8.38
2023-05-05T05:41:59.680Z,8.40
2023-05-05T05:44:03.471Z,8.41
2023-05-05T05:46:09.002Z,8.42
2023-05-05T05:48:14.450Z,8.45
2023-05-05T05:50:17.980Z,8.49
2023-05-05T05:52:23.069Z,8.54
2023-05-05T05:54:26.661Z,8.61
2023-05-05T05:56:30.178Z,8.68
2023-05-05T05:58:33.769Z,8.77
2023-05-05T06:00:37.463Z,8.85
2023-05-05T06:02:44.590Z,8.92
2023-05-05T06:04:51.695Z,9.00
2023-05-05T06:06:55.617Z,9.09
2023-05-05T06:09:00.572Z,9.16
2023-05-05T06:11:05.047Z,9.25
2023-05-05T06:13:08.597Z,9.33
2023-05-05T06:15:14.632Z,9.41
2023-05-05T06:17:18.075Z,9.49
2023-05-05T06:19:21.563Z,9.57
2023-05-05T06:21:25.607Z,9.66
2023-05-05T06:23:29.086Z,9.74
2023-05-05T06:25:38.928Z,9.82
2023-05-05T06:27:42.250Z,9.85
2023-05-05T06:29:45.555Z,9.85
2023-05-05T06:31:49.052Z,9.88
2023-05-05T06:33:52.465Z,9.93
2023-05-05T06:35:55.822Z,9.99
2023-05-05T06:37:59.146Z,10.04
2023-05-05T06:40:02.517Z,10.12
2023-05-05T06:42:08.174Z,10.19
2023-05-05T06:44:11.798Z,10.28
2023-05-05T06:46:15.392Z,10.35
2023-05-05T06:48:19.453Z,10.42
2023-05-05T06:50:22.844Z,10.50
2023-05-05T06:52:27.033Z,10.59
2023-05-05T06:54:30.452Z,10.70
2023-05-05T06:56:33.723Z,10.80
2023-05-05T06:58:38.458Z,10.89
2023-05-05T07:00:42.283Z,11.01
2023-05-05T07:02:47.566Z,11.14
2023-05-05T07:04:51.978Z,11.29
2023-05-05T07:06:55.633Z,11.38
2023-05-05T07:08:59.080Z,11.44
2023-05-05T07:11:02.517Z,11.48
2023-05-05T07:13:05.940Z,11.53
2023-05-05T07:15:23.804Z,11.61
2023-05-05T07:17:31.869Z,11.65
2023-05-05T07:19:35.444Z,11.67
2023-05-05T07:21:39.758Z,11.70
2023-05-05T07:23:43.318Z,11.71
2023-05-05T07:25:46.881Z,11.71
2023-05-05T07:27:50.378Z,11.72
2023-05-05T07:29:53.735Z,11.74
2023-05-05T07:31:58.582Z,11.77
2023-05-05T07:34:01.934Z,11.81
2023-05-05T07:36:05.986Z,11.84
2023-05-05T07:38:10.787Z,11.91
2023-05-05T07:40:14.995Z,11.97
2023-05-05T07:42:18.334Z,12.02
2023-05-05T07:44:21.827Z,12.05
2023-05-05T07:46:25.169Z,12.11
2023-05-05T07:48:30.259Z,12.19
2023-05-05T07:50:33.613Z,12.27
2023-05-05T07:52:46.643Z,12.33
2023-05-05T07:54:53.090Z,12.36
2023-05-05T07:56:57.381Z,12.40
2023-05-05T07:59:01.034Z,12.49
2023-05-05T08:01:06.563Z,12.55
2023-05-05T08:03:11.889Z,12.63
2023-05-05T08:05:17.499Z,12.69
2023-05-05T08:07:20.963Z,12.73
2023-05-05T08:09:24.244Z,12.75
2023-05-05T08:11:29.556Z,12.77
2023-05-05T08:13:33.065Z,12.80
2023-05-05T08:15:36.471Z,12.84
2023-05-05T08:17:50.042Z,12.91
2023-05-05T08:19:53.995Z,13.00
2023-05-05T08:22:01.115Z,13.07
2023-05-05T08:24:04.950Z,13.11
2023-05-05T08:26:09.268Z,13.15
2023-05-05T08:28:12.653Z,13.24
2023-05-05T08:30:19.592Z,13.39
2023-05-05T08:32:23.019Z,13.55
2023-05-05T08:34:26.366Z,13.71
2023-05-05T08:36:29.782Z,13.84
2023-05-05T08:38:34.581Z,13.95
2023-05-05T08:40:39.493Z,14.06
2023-05-05T08:42:43.098Z,14.12
2023-05-05T08:44:46.409Z,14.16
2023-05-05T08:46:50.896Z,14.17
2023-05-05T08:48:56.473Z,14.18
2023-05-05T08:51:02.624Z,14.18
2023-05-05T08:53:11.599Z,14.21
2023-05-05T08:55:25.674Z,14.20
2023-05-05T08:57:34.173Z,14.23
2023-05-05T08:59:39.394Z,14.24
2023-05-05T09:01:43.943Z,14.25
2023-05-05T09:03:47.272Z,14.33
2023-05-05T09:05:53.289Z,14.42
2023-05-05T09:07:56.892Z,14.49
2023-05-05T09:10:01.066Z,14.55
2023-05-05T09:12:06.329Z,14.62
2023-05-05T09:14:09.865Z,14.72
2023-05-05T09:16:13.318Z,14.77
2023-05-05T09:18:16.698Z,14.84
2023-05-05T09:20:20.048Z,14.88
2023-05-05T09:22:34.542Z,14.94
2023-05-05T09:24:37.911Z,14.98
2023-05-05T09:26:43.800Z,15.02
2023-05-05T09:28:54.304Z,15.04
2023-05-05T09:30:58.069Z,15.07
2023-05-05T09:33:02.296Z,15.09
2023-05-05T09:35:06.608Z,15.08
2023-05-05T09:37:10.073Z,15.10
2023-05-05T09:39:13.465Z,15.07
2023-05-05T09:41:17.016Z,15.02
2023-05-05T09:43:22.165Z,14.96
2023-05-05T09:45:28.431Z,14.85
2023-05-05T09:47:38.095Z,14.73
2023-05-05T09:49:41.638Z,14.62
2023-05-05T09:51:45.625Z,14.53
2023-05-05T09:53:49.295Z,14.45
2023-05-05T09:55:56.256Z,14.39
2023-05-05T09:58:18.008Z,14.33
2023-05-05T10:00:22.250Z,14.27
2023-05-05T10:02:33.990Z,14.24
2023-05-05T10:04:37.360Z,14.23
2023-05-05T10:06:42.366Z,14.27
2023-05-05T10:08:46.563Z,14.29
2023-05-05T10:10:53.176Z,14.33
2023-05-05T10:12:58.670Z,14.36
2023-05-05T10:15:03.962Z,14.43
2023-05-05T10:17:11.211Z,14.52
2023-05-05T10:19:17.715Z,14.62
2023-05-05T10:21:22.820Z,14.74
2023-05-05T10:23:32.723Z,14.84
2023-05-05T10:25:43.321Z,14.98
2023-05-05T10:27:51.711Z,15.09
2023-05-05T10:29:58.707Z,15.23
2023-05-05T10:32:24.438Z,15.40
2023-05-05T10:34:40.565Z,15.57
2023-05-05T10:36:44.638Z,15.72
2023-05-05T10:38:48.167Z,15.81
2023-05-05T10:40:51.770Z,15.88
2023-05-05T10:42:56.382Z,15.93
2023-05-05T10:44:59.883Z,16.02
2023-05-05T10:47:04.580Z,16.09
2023-05-05T10:49:15.892Z,16.21
2023-05-05T10:51:40.722Z,16.31
2023-05-05T10:53:57.648Z,16.39
2023-05-05T10:56:10.023Z,16.48
2023-05-05T10:58:35.026Z,16.59
2023-05-05T11:00:52.068Z,16.68
2023-05-05T11:03:21.376Z,16.74
2023-05-05T11:05:25.014Z,16.85
2023-05-05T11:07:29.803Z,16.97
2023-05-05T11:09:33.316Z,17.08
2023-05-05T11:12:04.679Z,17.15
2023-05-05T11:14:22.448Z,17.20
2023-05-05T11:16:47.842Z,17.19
2023-05-05T11:18:51.432Z,17.21
2023-05-05T11:21:19.095Z,17.27
2023-05-05T11:23:27.307Z,17.30
2023-05-05T11:25:49.033Z,17.29
2023-05-05T11:28:08.312Z,17.30
2023-05-05T11:30:13.247Z,17.29
2023-05-05T11:32:16.868Z,17.26
2023-05-05T11:34:28.129Z,17.23
2023-05-05T11:36:41.996Z,17.18
2023-05-05T11:39:06.264Z,17.14
2023-05-05T11:41:14.536Z,17.16
2023-05-05T11:43:20.464Z,17.20
2023-05-05T11:45:25.477Z,17.22
2023-05-05T11:47:30.994Z,17.22
2023-05-05T11:49:35.811Z,17.23
2023-05-05T11:51:39.429Z,17.24
2023-05-05T11:53:47.702Z,17.20
2023-05-05T11:56:07.626Z,17.13
2023-05-05T11:58:19.659Z,17.04
2023-05-05T12:00:35.555Z,16.98
2023-05-05T12:02:39.056Z,16.90
2023-05-05T12:04:43.221Z,16.80
2023-05-05T12:06:47.406Z,16.71
2023-05-05T12:08:51.034Z,16.66
2023-05-05T12:11:04.227Z,16.59
2023-05-05T12:13:19.369Z,16.51
2023-05-05T12:15:29.923Z,16.41
2023-05-05T12:17:45.020Z,16.32
2023-05-05T12:19:53.393Z,16.25
2023-05-05T12:21:56.972Z,16.18
2023-05-05T12:24:00.998Z,16.14
2023-05-05T12:26:07.854Z,16.07
2023-05-05T12:28:11.608Z,16.02
2023-05-05T12:30:17.663Z,15.96
2023-05-05T12:32:26.105Z,15.90
2023-05-05T12:34:29.620Z,15.86
2023-05-05T12:36:34.097Z,15.84
2023-05-05T12:38:37.691Z,15.80
2023-05-05T12:40:48.285Z,15.76
2023-05-05T12:42:53.808Z,15.74
2023-05-05T12:44:57.227Z,15.71
2023-05-05T12:47:00.611Z,15.69
2023-05-05T12:49:05.786Z,15.67
2023-05-05T12:51:17.425Z,15.66
2023-05-05T12:53:23.779Z,15.69
2023-05-05T12:55:37.435Z,15.74
2023-05-05T12:58:02.971Z,15.82
2023-05-05T13:00:18.615Z,15.92
2023-05-05T13:02:23.280Z,16.00
2023-05-05T13:04:28.098Z,16.05
2023-05-05T13:06:31.707Z,16.08
2023-05-05T13:08:44.200Z,16.09
2023-05-05T13:10:59.448Z,16.10
2023-05-05T13:13:04.645Z,16.09
2023-05-05T13:15:09.512Z,16.12
2023-05-05T13:17:14.873Z,16.13
2023-05-05T13:19:18.274Z,16.13
2023-05-05T13:21:21.694Z,16.14
2023-05-05T13:23:25.844Z,16.14
2023-05-05T13:25:29.520Z,16.16
2023-05-05T13:27:33.037Z,16.17
2023-05-05T13:29:36.541Z,16.17
2023-05-05T13:31:40.220Z,16.20
2023-05-05T13:33:45.101Z,16.23
2023-05-05T13:35:48.507Z,16.25
2023-05-05T13:37:51.846Z,16.28
2023-05-05T13:40:04.577Z,16.32
2023-05-05T13:42:08.179Z,16.37
2023-05-05T13:44:11.555Z,16.41
2023-05-05T13:46:20.038Z,16.47
2023-05-05T13:48:23.816Z,16.52
2023-05-05T13:50:29.214Z,16.63
2023-05-05T13:52:33.154Z,16.74
2023-05-05T13:54:37.622Z,16.82
2023-05-05T13:56:41.034Z,16.84
2023-05-05T13:58:44.316Z,16.89
2023-05-05T14:00:47.769Z,17.02
2023-05-05T14:02:51.306Z,17.22
2023-05-05T14:04:54.672Z,17.45
2023-05-05T14:06:59.422Z,17.64
2023-05-05T14:09:05.861Z,17.80
2023-05-05T14:11:09.468Z,17.86
2023-05-05T14:13:12.919Z,17.87
2023-05-05T14:15:16.472Z,17.85
2023-05-05T14:17:23.778Z,17.87
2023-05-05T14:19:27.674Z,17.90
2023-05-05T14:21:31.728Z,17.89
2023-05-05T14:23:36.601Z,17.84
2023-05-05T14:25:40.075Z,17.75
2023-05-05T14:27:43.394Z,17.67
2023-05-05T14:29:46.701Z,17.59
2023-05-05T14:31:51.393Z,17.48
2023-05-05T14:33:54.794Z,17.38
2023-05-05T14:35:58.240Z,17.29
2023-05-05T14:38:01.531Z,17.23
2023-05-05T14:40:07.973Z,17.25
2023-05-05T14:42:11.279Z,17.47
2023-05-05T14:44:14.619Z,17.67
2023-05-05T14:46:18.950Z,17.77
2023-05-05T14:48:22.795Z,17.75
2023-05-05T14:50:26.140Z,17.66
2023-05-05T14:52:29.513Z,17.55
2023-05-05T14:54:32.850Z,17.38
2023-05-05T14:56:37.621Z,17.17
2023-05-05T14:58:40.985Z,16.97
2023-05-05T15:00:44.340Z,16.77
2023-05-05T15:02:48.412Z,16.59
2023-05-05T15:04:53.014Z,16.43
2023-05-05T15:06:56.633Z,16.29
2023-05-05T15:08:59.960Z,16.15
2023-05-05T15:11:04.346Z,16.01
2023-05-05T15:13:09.096Z,15.88
2023-05-05T15:15:13.040Z,15.79
2023-05-05T15:17:16.338Z,15.71
2023-05-05T15:19:19.763Z,15.66
2023-05-05T15:21:23.182Z,15.63
2023-05-05T15:23:26.665Z,15.59
2023-05-05T15:25:29.974Z,15.59
2023-05-05T15:27:33.408Z,15.58
2023-05-05T15:29:38.168Z,15.59
2023-05-05T15:31:41.633Z,15.64
2023-05-05T15:33:48.518Z,15.70
2023-05-05T15:35:51.816Z,15.78
2023-05-05T15:37:55.349Z,15.87
2023-05-05T15:39:58.678Z,15.93
2023-05-05T15:42:03.807Z,15.95
2023-05-05T15:44:07.372Z,15.92
2023-05-05T15:46:14.193Z,15.87
2023-05-05T15:48:17.527Z,15.81
2023-05-05T15:50:21.156Z,15.75
2023-05-05T15:52:24.514Z,15.71
2023-05-05T15:54:27.876Z,15.64
2023-05-05T15:56:31.201Z,15.55
2023-05-05T15:58:34.524Z,15.45
2023-05-05T16:00:37.958Z,15.34
2023-05-05T16:02:42.683Z,15.21
2023-05-05T16:04:46.218Z,15.08
2023-05-05T16:06:49.572Z,15.00
2023-05-05T16:08:52.965Z,14.90
2023-05-05T16:10:56.976Z,14.82
2023-05-05T16:13:00.299Z,14.71
2023-05-05T16:15:03.741Z,14.63
2023-05-05T16:17:07.762Z,14.54
2023-05-05T16:19:12.574Z,14.47
2023-05-05T16:21:16.246Z,14.40
2023-05-05T16:23:19.602Z,14.35
2023-05-05T16:25:23.573Z,14.28
2023-05-05T16:27:27.200Z,14.21
2023-05-05T16:29:30.734Z,14.13
2023-05-05T16:31:34.128Z,14.07
2023-05-05T16:33:40.796Z,14.02
2023-05-05T16:35:46.364Z,13.97
2023-05-05T16:37:49.800Z,13.91
2023-05-05T16:39:53.084Z,13.84
2023-05-05T16:41:56.384Z,13.77
2023-05-05T16:43:59.716Z,13.72
2023-05-05T16:46:03.722Z,13.67
2023-05-05T16:48:09.037Z,13.65
2023-05-05T16:50:12.953Z,13.60
2023-05-05T16:52:17.684Z,13.55
2023-05-05T16:54:21.005Z,13.53
2023-05-05T16:56:24.368Z,13.47
2023-05-05T16:58:27.736Z,13.45
2023-05-05T17:00:31.183Z,13.40
2023-05-05T17:02:45.224Z,13.36
2023-05-05T17:04:48.680Z,13.30
2023-05-05T17:06:51.975Z,13.25
2023-05-05T17:08:56.791Z,13.21
2023-05-05T17:11:00.108Z,13.16
2023-05-05T17:13:03.480Z,13.11
2023-05-05T17:15:08.553Z,13.05
2023-05-05T17:17:12.093Z,12.99
2023-05-05T17:19:15.418Z,12.93
2023-05-05T17:21:18.771Z,12.88
2023-05-05T17:23:22.265Z,12.82
2023-05-05T17:25:27.192Z,12.78
2023-05-05T17:27:30.513Z,12.75
2023-05-05T17:29:36.912Z,12.71
2023-05-05T17:31:40.322Z,12.66
2023-05-05T17:34:08.780Z,12.62
2023-05-05T17:36:12.202Z,12.57
2023-05-05T17:38:15.600Z,12.54
2023-05-05T17:40:18.881Z,12.50
2023-05-05T17:42:23.752Z,12.42
2023-05-05T17:44:27.196Z,12.32
2023-05-05T17:46:30.527Z,12.22
2023-05-05T17:48:33.937Z,12.11
2023-05-05T17:50:37.251Z,12.04
2023-05-05T17:52:42.082Z,11.96
2023-05-05T17:54:46.216Z,11.88
2023-05-05T17:56:49.498Z,11.80
2023-05-05T17:58:54.397Z,11.73
2023-05-05T18:00:57.823Z,11.68
2023-05-05T18:03:02.347Z,11.65
2023-05-05T18:05:06.452Z,11.59
2023-05-05T18:07:12.088Z,11.54
2023-05-05T18:09:16.700Z,11.50
2023-05-05T18:11:21.330Z,11.45
2023-05-05T18:13:24.713Z,11.43
2023-05-05T18:15:30.071Z,11.40
2023-05-05T18:17:33.594Z,11.37
2023-05-05T18:19:37.100Z,11.36
2023-05-05T18:21:40.521Z,11.33
2023-05-05T18:23:43.948Z,11.31
2023-05-05T18:25:47.236Z,11.28
2023-05-05T18:27:50.673Z,11.25
2023-05-05T18:29:54.065Z,11.22
2023-05-05T18:31:58.985Z,11.19
2023-05-05T18:34:02.630Z,11.18
2023-05-05T18:36:06.735Z,11.15
2023-05-05T18:38:10.194Z,11.11
2023-05-05T18:40:13.910Z,11.07
2023-05-05T18:42:17.351Z,11.03
2023-05-05T18:44:20.883Z,11.02
2023-05-05T18:46:24.476Z,11.00
2023-05-05T18:48:29.330Z,10.98
2023-05-05T18:50:33.335Z,10.97
2023-05-05T18:52:37.076Z,10.94
2023-05-05T18:54:41.105Z,10.93
2023-05-05T18:56:44.519Z,10.92
2023-05-05T18:58:48.091Z,10.91
2023-05-05T19:00:51.966Z,10.90
2023-05-05T19:02:55.546Z,10.88
2023-05-05T19:05:00.396Z,10.87
2023-05-05T19:07:03.889Z,10.86
2023-05-05T19:09:07.304Z,10.83
2023-05-05T19:11:10.735Z,10.81
2023-05-05T19:13:14.083Z,10.79
2023-05-05T19:15:18.391Z,10.78
2023-05-05T19:17:21.682Z,10.75
2023-05-05T19:19:24.979Z,10.73
2023-05-05T19:21:29.757Z,10.71
2023-05-05T19:23:33.624Z,10.68
2023-05-05T19:25:37.705Z,10.66
2023-05-05T19:27:43.910Z,10.63
2023-05-05T19:29:52.054Z,10.60
2023-05-05T19:31:55.661Z,10.56
2023-05-05T19:34:02.116Z,10.52
2023-05-05T19:36:05.903Z,10.48
2023-05-05T19:38:10.952Z,10.45
2023-05-05T19:40:14.554Z,10.40
2023-05-05T19:42:18.524Z,10.36
2023-05-05T19:44:22.929Z,10.30
2023-05-05T19:46:26.953Z,10.27
2023-05-05T19:48:30.330Z,10.22
2023-05-05T19:50:33.688Z,10.19
2023-05-05T19:52:38.479Z,10.16
2023-05-05T19:54:43.598Z,10.12
2023-05-05T19:56:46.958Z,10.09
2023-05-05T19:58:57.405Z,10.05
2023-05-05T20:01:00.832Z,10.04
2023-05-05T20:03:04.360Z,10.01
2023-05-05T20:05:08.354Z,9.99
2023-05-05T20:07:11.665Z,9.95
2023-05-05T20:09:15.330Z,9.89
2023-05-05T20:11:21.288Z,9.85
2023-05-05T20:13:24.598Z,9.82
2023-05-05T20:15:28.124Z,9.78
2023-05-05T20:17:31.511Z,9.75
2023-05-05T20:19:34.929Z,9.69
2023-05-05T20:21:38.268Z,9.65
2023-05-05T20:23:42.888Z,9.60
2023-05-05T20:25:46.205Z,9.56
2023-05-05T20:27:53.902Z,9.51
2023-05-05T20:29:57.575Z,9.47
2023-05-05T20:32:01.010Z,9.44
2023-05-05T20:34:04.286Z,9.41
2023-05-05T20:36:08.289Z,9.39
2023-05-05T20:38:11.855Z,9.36
2023-05-05T20:40:15.130Z,9.34
2023-05-05T20:42:18.478Z,9.32
2023-05-05T20:44:23.182Z,9.31
2023-05-05T20:46:26.537Z,9.30
2023-05-05T20:48:30.158Z,9.28
2023-05-05T20:50:33.578Z,9.26
2023-05-05T20:52:36.993Z,9.24
2023-05-05T20:54:40.324Z,9.22
2023-05-05T20:56:43.638Z,9.19
2023-05-05T20:58:46.917Z,9.16
2023-05-05T21:00:51.935Z,9.12
2023-05-05T21:02:57.016Z,9.06
2023-05-05T21:05:03.071Z,9.00
2023-05-05T21:07:07.126Z,8.96
2023-05-05T21:09:10.438Z,8.91
2023-05-05T21:11:14.226Z,8.86
2023-05-05T21:13:17.578Z,8.82
2023-05-05T21:15:20.947Z,8.76
2023-05-05T21:17:25.928Z,8.70
2023-05-05T21:19:29.192Z,8.63
2023-05-05T21:21:32.796Z,8.58
2023-05-05T21:23:36.143Z,8.56
2023-05-05T21:25:39.526Z,8.53
2023-05-05T21:27:42.960Z,8.49
2023-05-05T21:29:46.223Z,8.48
2023-05-05T21:31:49.588Z,8.47
2023-05-05T21:33:54.327Z,8.43
2023-05-05T21:35:57.637Z,8.40
2023-05-05T21:38:01.399Z,8.38
2023-05-05T21:40:05.448Z,8.34
2023-05-05T21:42:08.808Z,8.32
2023-05-05T21:44:12.142Z,8.28
2023-05-05T21:46:17.271Z,8.26
2023-05-05T21:48:21.021Z,8.26
2023-05-05T21:50:27.535Z,8.26
2023-05-05T21:52:31.547Z,8.25
2023-05-05T21:54:34.836Z,8.24
2023-05-05T21:56:38.736Z,8.22
2023-05-05T21:58:42.194Z,8.20
2023-05-05T22:00:45.697Z,8.20
2023-05-05T22:02:49.061Z,8.20
2023-05-05T22:04:52.546Z,8.20
2023-05-05T22:06:57.643Z,8.19
2023-05-05T22:09:01.310Z,8.19
2023-05-05T22:11:04.690Z,8.18
2023-05-05T22:13:10.618Z,8.18
2023-05-05T22:15:14.112Z,8.18
2023-05-05T22:17:17.420Z,8.19
2023-05-05T22:19:22.942Z,8.18
2023-05-05T22:21:27.549Z,8.19
2023-05-05T22:23:32.264Z,8.20
2023-05-05T22:25:35.663Z,8.20
2023-05-05T22:27:39.073Z,8.18
2023-05-05T22:29:42.545Z,8.17
2023-05-05T22:31:46.065Z,8.17
2023-05-05T22:33:49.375Z,8.17
2023-05-05T22:35:53.357Z,8.16
2023-05-05T22:37:56.831Z,8.17
2023-05-05T22:40:01.787Z,8.17
2023-05-05T22:42:05.293Z,8.17
2023-05-05T22:44:08.739Z,8.17
2023-05-05T22:46:12.155Z,8.16
2023-05-05T22:48:15.520Z,8.15
2023-05-05T22:50:18.836Z,8.15
2023-05-05T22:52:22.225Z,8.14
2023-05-05T22:54:25.616Z,8.14
2023-05-05T22:56:30.395Z,8.13
2023-05-05T22:58:33.717Z,8.12
2023-05-05T23:00:37.127Z,8.10
2023-05-05T23:02:41.647Z,8.09
2023-05-05T23:04:45.467Z,8.09
2023-05-05T23:06:48.785Z,8.08
2023-05-05T23:08:52.172Z,8.08
2023-05-05T23:10:55.567Z,8.08
2023-05-05T23:13:00.336Z,8.07
2023-05-05T23:15:03.671Z,8.07
2023-05-05T23:17:07.128Z,8.08
2023-05-05T23:19:10.541Z,8.08
2023-05-05T23:21:13.854Z,8.08
2023-05-05T23:23:17.154Z,8.08
2023-05-05T23:25:20.474Z,8.07
2023-05-05T23:27:24.062Z,8.05
2023-05-05T23:29:28.839Z,8.04
2023-05-05T23:31:32.261Z,8.03
2023-05-05T23:33:35.547Z,8.04
2023-05-05T23:35:39.536Z,8.05
2023-05-05T23:37:42.796Z,8.03
2023-05-05T23:39:45.990Z,8.02
2023-05-05T23:41:49.146Z,8.02
2023-05-05T23:43:52.351Z,8.00
2023-05-05T23:45:57.204Z,8.00
2023-05-05T23:48:00.418Z,7.99
2023-05-05T23:50:03.918Z,8.00
2023-05-05T23:52:07.134Z,7.99
2023-05-05T23:54:10.329Z,7.97
2023-05-05T23:56:13.574Z,7.95
2023-05-05T23:58:16.849Z,7.93
